createdAt,value
2019-03-19T00:01:19.609Z,99.90
2019-03-19T00:04:12.164Z,99.90
2019-03-19T00:07:00.182Z,99.90
2019-03-19T00:09:48.171Z,99.90
2019-03-19T00:12:36.441Z,99.90
2019-03-19T00:15:24.542Z,99.90
2019-03-19T00:18:12.593Z,99.90
2019-03-19T00:21:00.552Z,99.90
2019-03-19T00:23:48.912Z,99.90
2019-03-19T00:26:36.880Z,99.90
2019-03-19T00:29:25.250Z,99.90
2019-03-19T00:32:18.130Z,99.90
2019-03-19T00:35:07.143Z,99.90
2019-03-19T00:37:55.550Z,99.90
2019-03-19T00:40:43.722Z,99.90
2019-03-19T00:43:31.927Z,99.90
2019-03-19T00:46:19.919Z,99.90
2019-03-19T00:49:07.944Z,99.90
2019-03-19T00:51:56.142Z,99.90
2019-03-19T00:54:44.493Z,99.90
2019-03-19T00:57:32.754Z,99.90
2019-03-19T01:00:20.730Z,99.90
2019-03-19T01:03:08.658Z,99.90
2019-03-19T01:05:57.362Z,99.90
2019-03-19T01:08:45.522Z,99.90
2019-03-19T01:11:33.603Z,99.90
2019-03-19T01:14:22.285Z,99.90
2019-03-19T01:17:10.202Z,99.90
2019-03-19T01:19:58.769Z,99.90
2019-03-19T01:22:46.772Z,99.90
2019-03-19T01:25:35.269Z,99.90
2019-03-19T01:28:23.680Z,99.90
2019-03-19T01:31:11.770Z,99.90
2019-03-19T01:33:59.733Z,99.90
2019-03-19T01:36:47.719Z,99.90
2019-03-19T01:39:35.754Z,99.90
2019-03-19T01:42:24.656Z,99.90
2019-03-19T01:45:13.862Z,99.90
2019-03-19T01:48:02.149Z,99.90
2019-03-19T01:50:50.064Z,99.90
2019-03-19T01:53:37.758Z,99.90
2019-03-19T01:56:25.757Z,99.90
2019-03-19T01:59:13.817Z,99.90
2019-03-19T02:02:06.052Z,99.90
2019-03-19T02:04:56.300Z,99.90
2019-03-19T02:07:45.031Z,99.90
2019-03-19T02:10:32.989Z,99.90
2019-03-19T02:13:21.411Z,99.90
2019-03-19T02:16:21.544Z,99.90
2019-03-19T02:19:09.540Z,99.90
2019-03-19T02:21:57.381Z,99.90
2019-03-19T02:24:45.030Z,99.90
2019-03-19T02:27:33.562Z,99.90
2019-03-19T02:30:21.602Z,99.90
2019-03-19T02:33:09.929Z,99.90
2019-03-19T02:35:57.848Z,99.90
2019-03-19T02:38:45.998Z,99.90
2019-03-19T02:41:34.476Z,99.90
2019-03-19T02:44:22.331Z,99.90
2019-03-19T02:47:10.585Z,99.90
2019-03-19T02:49:58.505Z,99.90
2019-03-19T02:52:46.841Z,99.90
2019-03-19T02:55:35.198Z,99.90
2019-03-19T02:58:23.238Z,99.90
2019-03-19T03:01:11.574Z,99.90
2019-03-19T03:03:59.738Z,99.90
2019-03-19T03:06:51.581Z,99.90
2019-03-19T03:09:42.561Z,99.90
2019-03-19T03:12:31.754Z,99.90
2019-03-19T03:15:25.732Z,99.90
2019-03-19T03:18:13.548Z,99.90
2019-03-19T03:21:01.332Z,99.90
2019-03-19T03:23:49.680Z,99.90
2019-03-19T03:26:47.806Z,99.90
2019-03-19T03:29:27.197Z,99.90
2019-03-19T03:32:25.776Z,99.90
2019-03-19T03:35:14.139Z,99.90
2019-03-19T03:38:02.533Z,99.90
2019-03-19T03:40:50.735Z,99.90
2019-03-19T03:43:38.523Z,99.90
2019-03-19T03:46:26.830Z,99.90
2019-03-19T03:49:14.566Z,99.90
2019-03-19T03:52:02.506Z,99.90
2019-03-19T03:54:50.853Z,99.90
2019-03-19T03:57:38.977Z,99.90
2019-03-19T04:00:27.362Z,99.90
2019-03-19T04:03:15.514Z,99.90
2019-03-19T04:06:03.826Z,99.90
2019-03-19T04:08:52.505Z,99.90
2019-03-19T04:11:40.842Z,99.90
2019-03-19T04:14:28.974Z,99.90
2019-03-19T04:17:17.127Z,99.90
2019-03-19T04:22:59.353Z,99.90
2019-03-19T04:25:47.898Z,99.90
2019-03-19T04:28:35.579Z,99.90
2019-03-19T04:31:23.842Z,99.90
2019-03-19T04:34:12.043Z,99.90
2019-03-19T04:37:00.149Z,99.90
2019-03-19T04:39:48.597Z,99.90
2019-03-19T04:42:36.930Z,99.90
2019-03-19T04:45:25.103Z,99.90
2019-03-19T04:48:13.280Z,99.90
2019-03-19T04:51:01.166Z,99.90
2019-03-19T04:53:49.427Z,99.90
2019-03-19T04:56:37.589Z,99.90
2019-03-19T04:59:25.743Z,99.90
2019-03-19T05:02:14.832Z,99.90
2019-03-19T05:05:02.960Z,99.90
2019-03-19T05:07:51.242Z,99.90
2019-03-19T05:10:39.228Z,99.90
2019-03-19T05:13:26.968Z,99.90
2019-03-19T05:16:15.414Z,99.90
2019-03-19T05:19:03.425Z,99.90
2019-03-19T05:21:51.255Z,99.90
2019-03-19T05:24:38.838Z,99.90
2019-03-19T05:27:36.838Z,99.90
2019-03-19T05:30:16.587Z,99.90
2019-03-19T05:33:04.533Z,99.90
2019-03-19T05:35:52.513Z,99.90
2019-03-19T05:38:40.672Z,99.90
2019-03-19T05:41:28.315Z,99.90
2019-03-19T05:44:16.403Z,99.90
2019-03-19T05:47:04.409Z,99.90
2019-03-19T05:49:58.530Z,99.90
2019-03-19T05:52:54.890Z,99.90
2019-03-19T05:55:42.960Z,99.90
2019-03-19T05:58:31.257Z,99.90
2019-03-19T06:01:19.959Z,99.90
2019-03-19T06:04:08.173Z,99.90
2019-03-19T06:06:56.462Z,99.90
2019-03-19T06:09:44.141Z,99.90
2019-03-19T06:12:32.466Z,99.90
2019-03-19T06:15:20.790Z,99.90
2019-03-19T06:18:09.376Z,99.90
2019-03-19T06:20:57.584Z,99.90
2019-03-19T06:23:45.430Z,99.90
2019-03-19T06:26:33.587Z,99.90
2019-03-19T06:29:21.702Z,99.90
2019-03-19T06:32:09.919Z,99.90
2019-03-19T06:34:57.860Z,99.90
2019-03-19T06:37:46.082Z,99.90
2019-03-19T06:40:34.409Z,99.90
2019-03-19T06:43:21.987Z,99.90
2019-03-19T06:46:09.993Z,99.90
2019-03-19T06:48:57.668Z,99.90
2019-03-19T06:51:45.650Z,99.90
2019-03-19T06:54:34.177Z,99.90
2019-03-19T06:57:22.317Z,99.90
2019-03-19T07:00:13.857Z,99.90
2019-03-19T07:03:01.641Z,99.90
2019-03-19T07:05:49.601Z,99.90
2019-03-19T07:08:37.683Z,99.90
2019-03-19T07:11:26.880Z,99.90
2019-03-19T07:14:15.199Z,99.90
2019-03-19T07:17:03.232Z,99.90
2019-03-19T07:19:51.172Z,99.90
2019-03-19T07:22:39.110Z,99.90
2019-03-19T07:25:26.856Z,99.90
2019-03-19T07:28:21.846Z,99.90
2019-03-19T07:31:04.984Z,99.90
2019-03-19T07:33:52.984Z,99.90
2019-03-19T07:36:42.751Z,99.90
2019-03-19T07:39:30.870Z,99.90
2019-03-19T07:42:19.067Z,99.90
2019-03-19T07:45:19.948Z,99.90
2019-03-19T07:48:08.018Z,99.90
2019-03-19T07:50:55.781Z,99.90
2019-03-19T07:53:43.744Z,99.90
2019-03-19T07:56:31.924Z,99.90
2019-03-19T07:59:20.238Z,99.80
2019-03-19T08:02:10.340Z,99.50
2019-03-19T08:04:58.546Z,99.60
2019-03-19T08:07:47.959Z,99.60
2019-03-19T08:10:36.196Z,99.90
2019-03-19T08:13:23.798Z,99.90
2019-03-19T08:16:12.117Z,99.90
2019-03-19T08:19:00.108Z,99.90
2019-03-19T08:21:47.890Z,99.90
2019-03-19T08:24:35.659Z,99.90
2019-03-19T08:27:23.862Z,99.90
2019-03-19T08:30:14.335Z,99.90
2019-03-19T08:33:01.842Z,99.90
2019-03-19T08:35:49.689Z,99.90
2019-03-19T08:38:37.855Z,99.90
2019-03-19T08:41:26.239Z,99.90
2019-03-19T08:44:14.562Z,99.90
2019-03-19T08:47:02.282Z,99.90
2019-03-19T08:49:50.685Z,99.90
2019-03-19T08:52:38.809Z,99.90
2019-03-19T08:55:26.947Z,99.90
2019-03-19T08:58:15.173Z,99.90
2019-03-19T09:01:03.059Z,99.90
2019-03-19T09:03:51.110Z,99.90
2019-03-19T09:06:39.333Z,99.90
2019-03-19T09:09:27.620Z,99.90
2019-03-19T09:12:15.815Z,99.90
2019-03-19T09:15:05.077Z,99.90
2019-03-19T09:17:53.184Z,99.70
2019-03-19T09:20:41.220Z,99.00
2019-03-19T09:23:28.833Z,99.30
2019-03-19T09:26:16.983Z,99.60
2019-03-19T09:29:05.310Z,98.90
2019-03-19T09:31:53.080Z,98.70
2019-03-19T09:34:40.777Z,96.60
2019-03-19T09:37:28.530Z,95.20
2019-03-19T09:40:15.932Z,96.20
2019-03-19T09:43:03.693Z,95.10
2019-03-19T09:45:51.724Z,94.90
2019-03-19T09:48:39.832Z,94.40
2019-03-19T09:51:27.779Z,94.50
2019-03-19T09:54:15.586Z,94.10
2019-03-19T09:57:03.293Z,95.70
2019-03-19T09:59:50.857Z,94.30
2019-03-19T10:02:38.529Z,93.30
2019-03-19T10:05:26.221Z,93.30
2019-03-19T10:08:13.946Z,95.70
2019-03-19T10:11:01.832Z,95.90
2019-03-19T10:13:49.350Z,93.70
2019-03-19T10:16:37.078Z,91.30
2019-03-19T10:19:24.893Z,93.20
2019-03-19T10:22:12.247Z,93.70
2019-03-19T10:25:00.068Z,91.60
2019-03-19T10:27:47.791Z,90.00
2019-03-19T10:30:35.307Z,91.30
2019-03-19T10:33:22.875Z,92.30
2019-03-19T10:36:10.497Z,91.50
2019-03-19T10:38:58.304Z,89.50
2019-03-19T10:41:46.463Z,90.20
2019-03-19T10:44:35.266Z,92.70
2019-03-19T10:47:22.793Z,92.10
2019-03-19T10:50:16.232Z,92.90
2019-03-19T10:53:04.233Z,92.70
2019-03-19T10:55:52.300Z,92.80
2019-03-19T10:58:40.396Z,92.00
2019-03-19T11:01:28.148Z,90.80
2019-03-19T11:04:15.865Z,90.40
2019-03-19T11:07:03.628Z,91.90
2019-03-19T11:09:51.597Z,91.80
2019-03-19T11:12:39.863Z,91.60
2019-03-19T11:15:27.551Z,91.10
2019-03-19T11:18:15.820Z,91.20
2019-03-19T11:21:03.563Z,91.70
2019-03-19T11:23:51.060Z,91.20
2019-03-19T11:26:38.887Z,90.40
2019-03-19T11:29:26.669Z,91.30
2019-03-19T11:32:14.394Z,90.40
2019-03-19T11:35:02.024Z,85.00
2019-03-19T11:37:49.624Z,86.80
2019-03-19T11:40:37.830Z,88.20
2019-03-19T11:43:25.618Z,87.30
2019-03-19T11:46:13.536Z,88.20
2019-03-19T11:49:01.166Z,89.20
2019-03-19T11:51:48.877Z,90.90
2019-03-19T11:54:37.112Z,90.30
2019-03-19T11:57:24.998Z,87.40
2019-03-19T12:00:20.581Z,85.30
2019-03-19T12:03:15.251Z,84.70
2019-03-19T12:05:57.631Z,83.30
2019-03-19T12:08:45.728Z,85.00
2019-03-19T12:11:33.393Z,85.40
2019-03-19T12:14:21.244Z,88.30
2019-03-19T12:17:09.087Z,90.00
2019-03-19T12:19:57.202Z,90.90
2019-03-19T12:22:44.920Z,91.60
2019-03-19T12:25:32.270Z,90.10
2019-03-19T12:28:19.852Z,82.90
2019-03-19T12:31:07.426Z,84.20
2019-03-19T12:33:55.185Z,84.60
2019-03-19T12:36:42.516Z,82.50
2019-03-19T12:39:30.327Z,81.50
2019-03-19T12:42:18.042Z,78.40
2019-03-19T12:45:06.527Z,73.80
2019-03-19T12:47:53.884Z,74.20
2019-03-19T12:50:42.078Z,75.50
2019-03-19T12:53:29.347Z,73.30
2019-03-19T12:56:17.140Z,73.10
2019-03-19T12:59:04.911Z,68.60
2019-03-19T13:01:52.782Z,74.20
2019-03-19T13:04:40.333Z,70.80
2019-03-19T13:07:27.794Z,81.40
2019-03-19T13:10:16.744Z,82.90
2019-03-19T13:13:05.056Z,85.20
2019-03-19T13:15:52.658Z,79.30
2019-03-19T13:18:40.318Z,83.20
2019-03-19T13:21:28.465Z,84.20
2019-03-19T13:24:17.333Z,82.30
2019-03-19T13:27:05.249Z,82.60
2019-03-19T13:29:52.509Z,81.30
2019-03-19T13:32:40.640Z,81.10
2019-03-19T13:35:28.689Z,82.20
2019-03-19T13:38:16.140Z,80.00
2019-03-19T13:41:04.041Z,77.40
2019-03-19T13:43:51.546Z,77.00
2019-03-19T13:46:38.954Z,77.20
2019-03-19T13:49:26.433Z,76.20
2019-03-19T13:52:14.009Z,76.30
2019-03-19T13:55:01.729Z,73.20
2019-03-19T13:57:49.872Z,74.70
2019-03-19T14:00:37.480Z,73.20
2019-03-19T14:03:25.133Z,74.80
2019-03-19T14:06:12.925Z,67.50
2019-03-19T14:09:00.273Z,64.40
2019-03-19T14:11:47.896Z,60.70
2019-03-19T14:14:35.451Z,62.90
2019-03-19T14:17:22.669Z,66.00
2019-03-19T14:20:12.386Z,62.90
2019-03-19T14:22:59.908Z,59.80
2019-03-19T14:25:47.233Z,60.10
2019-03-19T14:28:35.386Z,60.20
2019-03-19T14:31:22.603Z,58.50
2019-03-19T14:34:10.111Z,57.90
2019-03-19T14:36:57.465Z,59.40
2019-03-19T14:39:45.441Z,59.40
2019-03-19T14:42:33.122Z,63.00
2019-03-19T14:45:21.098Z,62.30
2019-03-19T14:48:08.705Z,61.60
2019-03-19T14:50:56.381Z,62.40
2019-03-19T14:53:43.907Z,62.40
2019-03-19T14:56:31.875Z,65.30
2019-03-19T14:59:19.506Z,66.30
2019-03-19T15:02:07.710Z,67.40
2019-03-19T15:04:55.377Z,68.40
2019-03-19T15:07:42.967Z,68.30
2019-03-19T15:10:30.528Z,68.60
2019-03-19T15:13:18.204Z,68.30
2019-03-19T15:16:05.827Z,68.60
2019-03-19T15:18:53.422Z,69.10
2019-03-19T15:21:40.857Z,69.70
2019-03-19T15:24:28.487Z,68.60
2019-03-19T15:27:16.102Z,69.20
2019-03-19T15:30:04.610Z,68.60
2019-03-19T15:32:52.738Z,69.80
2019-03-19T15:35:40.333Z,69.50
2019-03-19T15:38:28.476Z,69.20
2019-03-19T15:41:16.346Z,69.30
2019-03-19T15:44:04.804Z,67.50
2019-03-19T15:46:52.625Z,68.00
2019-03-19T15:49:40.852Z,67.60
2019-03-19T15:52:28.633Z,67.10
2019-03-19T15:55:16.293Z,65.90
2019-03-19T15:58:04.362Z,66.10
2019-03-19T16:00:51.863Z,66.00
2019-03-19T16:03:40.099Z,67.80
2019-03-19T16:06:28.307Z,68.80
2019-03-19T16:09:16.102Z,69.40
2019-03-19T16:12:03.753Z,69.10
2019-03-19T16:14:51.439Z,66.30
2019-03-19T16:17:39.729Z,67.20
2019-03-19T16:20:27.904Z,70.50
2019-03-19T16:23:16.092Z,71.30
2019-03-19T16:26:03.709Z,71.80
2019-03-19T16:28:51.747Z,72.20
2019-03-19T16:31:39.599Z,72.40
2019-03-19T16:34:27.201Z,72.00
2019-03-19T16:37:15.167Z,73.30
2019-03-19T16:40:03.639Z,72.70
2019-03-19T16:42:51.252Z,72.00
2019-03-19T16:45:38.878Z,72.60
2019-03-19T16:48:26.719Z,74.20
2019-03-19T16:51:14.928Z,73.70
2019-03-19T16:54:02.595Z,75.80
2019-03-19T16:56:50.543Z,74.80
2019-03-19T16:59:38.615Z,73.70
2019-03-19T17:02:26.520Z,75.30
2019-03-19T17:05:15.554Z,76.80
2019-03-19T17:08:04.078Z,80.00
2019-03-19T17:10:52.232Z,82.30
2019-03-19T17:13:40.104Z,84.30
2019-03-19T17:16:27.917Z,84.60
2019-03-19T17:19:16.333Z,86.80
2019-03-19T17:22:04.430Z,88.20
2019-03-19T17:24:52.331Z,88.30
2019-03-19T17:27:40.295Z,88.80
2019-03-19T17:30:28.093Z,89.40
2019-03-19T17:33:16.323Z,88.60
2019-03-19T17:36:04.347Z,89.40
2019-03-19T17:38:51.923Z,90.30
2019-03-19T17:41:40.839Z,90.80
2019-03-19T17:44:28.781Z,91.00
2019-03-19T17:47:16.329Z,90.80
2019-03-19T17:50:04.586Z,90.70
2019-03-19T17:52:52.771Z,91.00
2019-03-19T17:55:40.620Z,91.20
2019-03-19T18:04:05.049Z,93.20
2019-03-19T18:06:53.153Z,92.60
2019-03-19T18:09:41.366Z,91.70
2019-03-19T18:12:29.458Z,91.90
2019-03-19T18:15:17.738Z,92.20
2019-03-19T18:18:06.075Z,92.30
2019-03-19T18:20:54.467Z,92.60
2019-03-19T18:23:42.957Z,92.70
2019-03-19T18:26:30.937Z,92.70
2019-03-19T18:29:19.002Z,92.80
2019-03-19T18:32:07.050Z,92.70
2019-03-19T18:34:55.171Z,92.40
2019-03-19T18:37:43.093Z,92.60
2019-03-19T18:40:31.060Z,92.70
2019-03-19T18:43:19.028Z,92.60
2019-03-19T18:46:07.052Z,92.50
2019-03-19T18:48:55.243Z,92.30
2019-03-19T18:51:43.115Z,92.80
2019-03-19T18:54:31.208Z,93.20
2019-03-19T18:57:19.436Z,92.60
2019-03-19T19:00:08.979Z,92.90
2019-03-19T19:02:57.047Z,93.10
2019-03-19T19:05:45.240Z,93.20
2019-03-19T19:08:33.117Z,93.20
2019-03-19T19:11:21.253Z,93.10
2019-03-19T19:14:09.920Z,93.30
2019-03-19T19:16:57.934Z,93.50
2019-03-19T19:19:45.738Z,93.80
2019-03-19T19:22:33.841Z,94.40
2019-03-19T19:25:23.682Z,94.40
2019-03-19T19:28:11.669Z,94.50
2019-03-19T19:31:00.011Z,94.90
2019-03-19T19:33:47.980Z,94.90
2019-03-19T19:36:35.737Z,95.00
2019-03-19T19:39:23.522Z,95.20
2019-03-19T19:42:11.573Z,95.10
2019-03-19T19:44:59.757Z,95.10
2019-03-19T19:47:47.353Z,95.10
2019-03-19T19:50:35.225Z,95.10
2019-03-19T19:53:37.821Z,95.30
2019-03-19T19:56:25.874Z,95.30
2019-03-19T19:59:14.297Z,95.10
2019-03-19T20:02:02.218Z,95.10
2019-03-19T20:04:50.429Z,95.10
2019-03-19T20:07:38.424Z,95.10
2019-03-19T20:10:30.986Z,95.10
2019-03-19T20:13:18.778Z,95.30
2019-03-19T20:16:06.526Z,95.50
2019-03-19T20:18:54.804Z,95.40
2019-03-19T20:21:42.645Z,95.50
2019-03-19T20:24:30.711Z,95.60
2019-03-19T20:27:19.448Z,95.60
2019-03-19T20:30:09.954Z,95.70
2019-03-19T20:32:58.205Z,95.60
2019-03-19T20:35:47.211Z,95.70
2019-03-19T20:38:35.052Z,95.70
2019-03-19T20:41:22.961Z,95.70
2019-03-19T20:44:11.193Z,95.80
2019-03-19T20:46:59.454Z,95.70
2019-03-19T20:49:48.073Z,95.90
2019-03-19T20:52:36.326Z,96.10
2019-03-19T20:55:24.447Z,96.20
2019-03-19T20:58:13.434Z,96.40
2019-03-19T21:01:01.284Z,96.50
2019-03-19T21:03:50.799Z,96.40
2019-03-19T21:06:40.933Z,96.30
2019-03-19T21:09:34.420Z,96.50
2019-03-19T21:12:27.273Z,96.70
2019-03-19T21:15:25.000Z,97.00
2019-03-19T21:18:18.462Z,97.10
2019-03-19T21:21:06.556Z,97.00
2019-03-19T21:23:54.895Z,96.90
2019-03-19T21:26:45.622Z,97.10
2019-03-19T21:29:34.373Z,97.00
2019-03-19T21:32:22.695Z,97.00
2019-03-19T21:35:13.445Z,96.70
2019-03-19T21:38:04.098Z,96.90
2019-03-19T21:44:56.578Z,97.00
2019-03-19T21:48:04.436Z,97.00
2019-03-19T21:50:59.435Z,97.00
2019-03-19T21:54:07.127Z,96.90
2019-03-19T21:57:01.143Z,96.80
2019-03-19T21:59:52.563Z,96.80
2019-03-19T22:02:40.737Z,96.90
2019-03-19T22:06:00.492Z,96.90
2019-03-19T22:09:18.552Z,97.00
2019-03-19T22:12:07.155Z,97.20
2019-03-19T22:15:27.496Z,96.90
2019-03-19T22:22:39.676Z,97.00
2019-03-19T22:25:42.655Z,97.10
2019-03-19T22:28:30.878Z,97.20
2019-03-19T22:31:18.677Z,97.20
2019-03-19T22:34:14.101Z,97.20
2019-03-19T22:36:58.509Z,97.30
2019-03-19T22:39:46.830Z,97.30
2019-03-19T22:42:35.030Z,97.40
2019-03-19T22:45:23.068Z,97.50
2019-03-19T22:48:11.129Z,97.70
2019-03-19T22:51:00.114Z,97.60
2019-03-19T22:53:48.646Z,97.70
2019-03-19T22:56:37.014Z,97.70
2019-03-19T22:59:33.400Z,97.60
2019-03-19T23:02:24.809Z,97.50
2019-03-19T23:05:14.832Z,97.40
2019-03-19T23:08:03.019Z,97.20
2019-03-19T23:10:50.960Z,97.00
2019-03-19T23:13:38.838Z,97.20
2019-03-19T23:16:32.503Z,97.40
2019-03-19T23:19:20.715Z,97.50
2019-03-19T23:22:08.841Z,97.50
2019-03-19T23:24:59.891Z,97.60
2019-03-19T23:27:47.976Z,97.70
2019-03-19T23:30:36.185Z,97.80
2019-03-19T23:33:23.956Z,98.00
2019-03-19T23:36:12.518Z,98.00
2019-03-19T23:39:00.677Z,98.30
2019-03-19T23:41:48.873Z,98.40
2019-03-19T23:44:44.402Z,98.30
2019-03-19T23:47:32.186Z,98.20
2019-03-19T23:50:20.022Z,98.00
2019-03-19T23:53:08.308Z,98.00
2019-03-19T23:55:56.021Z,98.00
2019-03-19T23:58:44.014Z,98.00
